createdAt,value
2018-09-28T00:01:21.783Z,7.37
2018-09-28T00:03:49.973Z,8.87
2018-09-28T00:06:18.120Z,8.50
2018-09-28T00:08:46.931Z,8.20
2018-09-28T00:11:15.359Z,7.73
2018-09-28T00:13:43.816Z,11.90
2018-09-28T00:16:12.013Z,5.90
2018-09-28T00:18:40.330Z,11.73
2018-09-28T00:21:08.496Z,10.57
2018-09-28T00:23:37.038Z,11.93
2018-09-28T00:26:05.658Z,8.23
2018-09-28T00:28:33.768Z,7.50
2018-09-28T00:31:01.929Z,8.00
2018-09-28T00:33:30.590Z,10.33
2018-09-28T00:35:59.849Z,10.13
2018-09-28T00:38:27.954Z,7.27
2018-09-28T00:40:56.138Z,9.27
2018-09-28T00:43:24.291Z,7.80
2018-09-28T00:45:52.483Z,14.33
2018-09-28T00:48:22.710Z,9.03
2018-09-28T00:50:52.429Z,13.57
2018-09-28T00:53:22.521Z,14.40
2018-09-28T00:55:50.692Z,16.90
2018-09-28T00:58:18.876Z,11.97
2018-09-28T01:00:47.078Z,11.90
2018-09-28T01:03:15.428Z,8.17
2018-09-28T01:05:45.674Z,10.43
2018-09-28T01:08:14.056Z,7.63
2018-09-28T01:10:42.242Z,9.67
2018-09-28T01:13:10.435Z,8.67
2018-09-28T01:15:38.599Z,9.90
2018-09-28T01:18:06.780Z,8.93
2018-09-28T01:20:34.978Z,9.93
2018-09-28T01:23:03.170Z,6.50
2018-09-28T01:25:31.514Z,8.13
2018-09-28T01:27:59.920Z,11.70
2018-09-28T01:30:28.150Z,17.50
2018-09-28T01:32:56.350Z,10.17
2018-09-28T01:35:24.570Z,9.93
2018-09-28T01:37:53.108Z,10.87
2018-09-28T01:40:21.758Z,9.77
2018-09-28T01:42:49.971Z,10.47
2018-09-28T01:45:18.156Z,9.37
2018-09-28T01:47:46.365Z,7.83
2018-09-28T01:50:15.427Z,10.90
2018-09-28T01:52:43.830Z,9.33
2018-09-28T01:55:12.166Z,10.67
2018-09-28T01:57:42.546Z,13.67
2018-09-28T02:00:10.718Z,14.93
2018-09-28T02:02:38.969Z,14.20
2018-09-28T02:05:07.162Z,8.70
2018-09-28T02:07:35.363Z,11.80
2018-09-28T02:10:03.542Z,14.37
2018-09-28T02:12:32.133Z,9.27
2018-09-28T02:15:00.302Z,10.67
2018-09-28T02:17:28.565Z,11.17
2018-09-28T02:19:56.899Z,8.93
2018-09-28T02:22:25.098Z,12.17
2018-09-28T02:24:53.425Z,9.83
2018-09-28T02:27:21.603Z,9.57
2018-09-28T02:29:49.806Z,9.97
2018-09-28T02:32:18.025Z,9.23
2018-09-28T02:34:46.310Z,7.67
2018-09-28T02:37:15.468Z,11.53
2018-09-28T02:39:43.634Z,5.93
2018-09-28T02:42:12.674Z,7.77
2018-09-28T02:44:40.854Z,10.13
2018-09-28T02:47:09.030Z,9.37
2018-09-28T02:49:37.435Z,8.13
2018-09-28T02:52:05.658Z,12.30
2018-09-28T02:54:33.839Z,9.43
2018-09-28T02:57:02.125Z,6.67
2018-09-28T02:59:30.320Z,11.43
2018-09-28T03:01:58.773Z,9.97
2018-09-28T03:04:29.038Z,9.37
2018-09-28T03:06:57.575Z,11.07
2018-09-28T03:09:26.638Z,12.47
2018-09-28T03:11:54.845Z,10.23
2018-09-28T03:14:23.022Z,12.43
2018-09-28T03:16:51.219Z,9.27
2018-09-28T03:19:19.435Z,6.87
2018-09-28T03:21:47.898Z,7.20
2018-09-28T03:24:16.079Z,11.27
2018-09-28T03:26:44.544Z,8.83
2018-09-28T03:29:12.858Z,6.27
2018-09-28T03:31:42.562Z,7.73
2018-09-28T03:34:11.313Z,13.07
2018-09-28T03:36:39.508Z,11.03
2018-09-28T03:39:08.097Z,8.37
2018-09-28T03:41:36.327Z,12.13
2018-09-28T03:44:04.761Z,10.27
2018-09-28T03:46:33.006Z,7.43
2018-09-28T03:49:01.695Z,9.03
2018-09-28T03:51:36.983Z,9.30
2018-09-28T03:54:05.203Z,8.70
2018-09-28T03:56:33.342Z,11.83
2018-09-28T03:59:02.323Z,14.67
2018-09-28T04:01:32.016Z,14.80
2018-09-28T04:04:00.282Z,12.57
2018-09-28T04:06:28.475Z,13.07
2018-09-28T04:08:56.658Z,11.70
2018-09-28T04:11:24.861Z,10.77
2018-09-28T04:13:53.105Z,13.70
2018-09-28T04:16:21.275Z,9.23
2018-09-28T04:19:04.381Z,15.37
2018-09-28T04:21:32.650Z,15.47
2018-09-28T04:24:00.834Z,11.13
2018-09-28T04:26:30.955Z,20.77
2018-09-28T04:28:59.790Z,12.77
2018-09-28T04:31:28.010Z,12.90
2018-09-28T04:33:56.310Z,15.50
2018-09-28T04:36:25.492Z,14.27
2018-09-28T04:38:53.705Z,17.03
2018-09-28T04:41:21.908Z,14.63
2018-09-28T04:43:50.122Z,18.37
2018-09-28T04:46:18.338Z,15.27
2018-09-28T04:48:46.652Z,18.67
2018-09-28T04:51:14.831Z,12.07
2018-09-28T04:53:43.962Z,10.80
2018-09-28T04:56:12.430Z,13.23
2018-09-28T04:58:40.603Z,12.33
2018-09-28T05:01:08.799Z,13.43
2018-09-28T05:03:37.623Z,18.23
2018-09-28T05:06:06.391Z,11.37
2018-09-28T05:08:34.593Z,15.30
2018-09-28T05:11:03.690Z,19.17
2018-09-28T05:13:32.398Z,20.73
2018-09-28T05:16:01.105Z,17.27
2018-09-28T05:18:29.271Z,15.77
2018-09-28T05:20:57.442Z,12.73
2018-09-28T05:23:25.630Z,10.87
2018-09-28T05:25:53.850Z,13.40
2018-09-28T05:28:22.262Z,11.07
2018-09-28T05:30:53.969Z,12.93
2018-09-28T05:33:18.618Z,11.37
2018-09-28T05:35:46.806Z,21.70
2018-09-28T05:38:16.830Z,24.37
2018-09-28T05:40:45.004Z,13.80
2018-09-28T05:43:13.219Z,19.63
2018-09-28T05:45:41.423Z,18.73
2018-09-28T05:48:09.657Z,19.00
2018-09-28T05:50:37.854Z,19.30
2018-09-28T05:53:06.859Z,17.07
2018-09-28T05:55:36.950Z,13.63
2018-09-28T05:58:10.638Z,13.93
2018-09-28T06:00:44.163Z,14.37
2018-09-28T06:03:14.136Z,15.50
2018-09-28T06:05:43.554Z,15.60
2018-09-28T06:08:12.290Z,20.13
2018-09-28T06:10:40.474Z,17.43
2018-09-28T06:13:09.014Z,22.17
2018-09-28T06:15:37.180Z,20.70
2018-09-28T06:18:05.369Z,17.47
2018-09-28T06:20:33.488Z,15.27
2018-09-28T06:23:02.391Z,13.27
2018-09-28T06:25:31.047Z,17.13
2018-09-28T06:27:59.255Z,12.63
2018-09-28T06:30:28.233Z,22.30
2018-09-28T06:32:56.846Z,11.07
2018-09-28T06:35:25.417Z,7.67
2018-09-28T06:37:53.514Z,9.37
2018-09-28T06:40:21.786Z,7.60
2018-09-28T06:42:49.930Z,9.53
2018-09-28T06:45:18.106Z,10.67
2018-09-28T06:47:46.841Z,7.67
2018-09-28T06:50:14.978Z,5.80
2018-09-28T06:52:43.688Z,6.67
2018-09-28T06:55:11.877Z,8.40
2018-09-28T06:57:40.097Z,7.17
2018-09-28T07:00:08.836Z,7.62
2018-09-28T07:02:37.199Z,11.15
2018-09-28T07:05:05.382Z,8.43
2018-09-28T07:07:33.567Z,8.25
2018-09-28T07:10:01.834Z,9.65
2018-09-28T07:12:30.228Z,11.57
2018-09-28T07:14:58.398Z,5.65
2018-09-28T07:17:27.194Z,6.83
2018-09-28T07:19:56.140Z,8.63
2018-09-28T07:22:24.350Z,6.83
2018-09-28T07:24:52.566Z,6.20
2018-09-28T07:27:20.718Z,6.65
2018-09-28T07:29:49.003Z,6.85
2018-09-28T07:32:17.158Z,6.50
2018-09-28T07:34:45.366Z,5.97
2018-09-28T07:37:13.765Z,7.83
2018-09-28T07:39:41.821Z,6.67
2018-09-28T07:42:10.914Z,6.97
2018-09-28T07:44:39.629Z,10.85
2018-09-28T07:47:08.242Z,7.37
2018-09-28T07:49:38.331Z,11.25
2018-09-28T07:52:06.526Z,8.63
2018-09-28T07:54:34.710Z,6.50
2018-09-28T07:57:02.898Z,9.13
2018-09-28T07:59:31.486Z,10.43
2018-09-28T08:01:59.879Z,8.70
2018-09-28T08:04:28.128Z,6.78
2018-09-28T08:06:58.258Z,11.73
2018-09-28T08:09:26.439Z,10.43
2018-09-28T08:11:54.613Z,10.82
2018-09-28T08:14:22.803Z,10.95
2018-09-28T08:16:50.966Z,12.00
2018-09-28T08:19:19.450Z,15.30
2018-09-28T08:21:47.627Z,10.05
2018-09-28T08:24:15.805Z,12.05
2018-09-28T08:26:44.010Z,10.95
2018-09-28T08:29:12.266Z,10.00
2018-09-28T08:31:40.846Z,13.48
2018-09-28T08:34:09.034Z,16.77
2018-09-28T08:36:37.230Z,14.75
2018-09-28T08:39:07.242Z,12.70
2018-09-28T08:41:35.661Z,11.20
2018-09-28T08:44:03.921Z,14.93
2018-09-28T08:46:43.248Z,11.83
2018-09-28T08:49:11.807Z,15.68
2018-09-28T08:51:39.925Z,12.75
2018-09-28T08:54:08.366Z,13.68
2018-09-28T08:56:37.390Z,13.65
2018-09-28T08:59:05.666Z,11.40
2018-09-28T09:01:33.903Z,10.90
2018-09-28T09:04:02.140Z,10.78
2018-09-28T09:06:30.363Z,13.35
2018-09-28T09:08:58.510Z,10.45
2018-09-28T09:11:26.716Z,10.35
2018-09-28T09:13:54.890Z,16.32
2018-09-28T09:16:23.191Z,15.32
2018-09-28T09:18:51.396Z,16.25
2018-09-28T09:21:19.721Z,13.55
2018-09-28T09:23:47.951Z,16.52
2018-09-28T09:26:18.004Z,12.70
2018-09-28T09:28:47.025Z,12.35
2018-09-28T09:31:15.597Z,13.95
2018-09-28T09:33:43.802Z,12.63
2018-09-28T09:36:12.016Z,12.75
2018-09-28T09:38:40.226Z,12.60
2018-09-28T09:41:08.425Z,14.07
2018-09-28T09:43:36.614Z,18.50
2018-09-28T09:46:04.858Z,18.05
2018-09-28T09:48:33.228Z,12.75
2018-09-28T09:51:01.366Z,21.75
2018-09-28T09:53:29.558Z,17.62
2018-09-28T09:55:57.731Z,15.05
2018-09-28T09:58:25.940Z,14.73
2018-09-28T10:00:59.759Z,13.83
2018-09-28T10:03:33.217Z,17.52
2018-09-28T10:06:01.591Z,14.20
2018-09-28T10:08:29.833Z,16.75
2018-09-28T10:10:59.974Z,17.42
2018-09-28T10:13:28.150Z,16.65
2018-09-28T10:15:56.363Z,15.50
2018-09-28T10:18:24.590Z,21.33
2018-09-28T10:20:52.809Z,14.95
2018-09-28T10:23:21.530Z,12.10
2018-09-28T10:25:49.906Z,16.57
2018-09-28T10:28:18.294Z,13.53
2018-09-28T10:30:46.685Z,14.20
2018-09-28T10:33:14.858Z,15.08
2018-09-28T10:35:43.446Z,14.38
2018-09-28T10:38:12.026Z,14.90
2018-09-28T10:40:40.416Z,10.53
2018-09-28T10:43:08.494Z,15.35
2018-09-28T10:45:36.720Z,17.32
2018-09-28T10:48:05.054Z,15.68
2018-09-28T10:50:33.471Z,11.15
2018-09-28T10:53:02.146Z,11.78
2018-09-28T10:55:30.269Z,11.20
2018-09-28T10:57:58.474Z,10.50
2018-09-28T11:00:28.188Z,11.78
2018-09-28T11:02:56.381Z,11.63
2018-09-28T11:05:24.597Z,8.65
2018-09-28T11:07:52.878Z,9.10
2018-09-28T11:10:21.122Z,15.40
2018-09-28T11:12:49.246Z,10.32
2018-09-28T11:15:17.490Z,15.93
2018-09-28T11:17:45.660Z,11.97
2018-09-28T11:20:14.454Z,12.65
2018-09-28T11:22:42.657Z,13.85
2018-09-28T11:25:10.862Z,10.75
2018-09-28T11:27:39.048Z,12.53
2018-09-28T11:30:07.246Z,13.30
2018-09-28T11:32:35.451Z,10.28
2018-09-28T11:35:03.676Z,13.60
2018-09-28T11:37:31.923Z,11.95
2018-09-28T11:40:00.094Z,13.32
2018-09-28T11:42:28.298Z,11.28
2018-09-28T11:44:56.531Z,14.65
2018-09-28T11:47:24.726Z,14.73
2018-09-28T11:49:53.976Z,16.37
2018-09-28T11:52:22.507Z,14.63
2018-09-28T11:54:50.945Z,15.50
2018-09-28T11:57:19.184Z,15.93
2018-09-28T11:59:47.351Z,16.32
2018-09-28T12:02:15.736Z,17.82
2018-09-28T12:04:44.074Z,21.80
2018-09-28T12:07:12.371Z,18.73
2018-09-28T12:09:40.581Z,20.48
2018-09-28T12:12:08.727Z,18.65
2018-09-28T12:14:36.874Z,18.90
2018-09-28T12:17:05.047Z,16.57
2018-09-28T12:19:33.945Z,14.00
2018-09-28T12:22:02.514Z,11.38
2018-09-28T12:24:30.715Z,10.75
2018-09-28T12:26:59.159Z,10.70
2018-09-28T12:29:27.863Z,10.28
2018-09-28T12:31:56.074Z,8.28
2018-09-28T12:34:24.382Z,8.00
2018-09-28T12:36:52.646Z,9.55
2018-09-28T12:39:20.864Z,10.60
2018-09-28T12:41:49.010Z,11.08
2018-09-28T12:44:17.916Z,4.67
2018-09-28T12:46:48.008Z,4.30
2018-09-28T12:49:16.185Z,3.85
2018-09-28T12:51:44.338Z,3.62
2018-09-28T12:54:12.546Z,3.62
2018-09-28T12:56:40.712Z,4.25
2018-09-28T12:59:09.858Z,2.40
2018-09-28T13:01:38.263Z,4.22
2018-09-28T13:04:09.080Z,3.83
2018-09-28T13:06:37.294Z,3.83
2018-09-28T13:09:06.716Z,3.27
2018-09-28T13:11:34.856Z,4.03
2018-09-28T13:14:03.417Z,6.12
2018-09-28T13:16:31.625Z,2.33
2018-09-28T13:18:59.790Z,4.08
2018-09-28T13:21:30.908Z,4.00
2018-09-28T13:23:59.039Z,3.98
2018-09-28T13:26:27.382Z,3.02
2018-09-28T13:28:56.006Z,3.47
2018-09-28T13:31:24.677Z,4.40
2018-09-28T13:33:52.858Z,6.17
2018-09-28T13:36:25.182Z,6.97
2018-09-28T13:38:53.420Z,4.90
2018-09-28T13:41:21.494Z,3.42
2018-09-28T13:43:49.688Z,5.60
2018-09-28T13:46:17.851Z,6.35
2018-09-28T13:48:46.021Z,8.63
2018-09-28T13:51:14.787Z,10.70
2018-09-28T13:53:55.536Z,11.00
2018-09-28T13:56:23.851Z,9.30
2018-09-28T13:58:51.974Z,9.80
2018-09-28T14:01:20.477Z,9.28
2018-09-28T14:03:48.674Z,6.45
2018-09-28T14:06:16.995Z,6.67
2018-09-28T14:08:45.401Z,8.38
2018-09-28T14:11:13.564Z,8.93
2018-09-28T14:13:41.777Z,11.78
2018-09-28T14:16:09.965Z,8.33
2018-09-28T14:18:38.185Z,9.17
2018-09-28T14:21:06.401Z,8.53
2018-09-28T14:23:37.499Z,15.77
2018-09-28T14:26:05.771Z,10.90
2018-09-28T14:28:34.080Z,12.70
2018-09-28T14:31:02.102Z,13.33
2018-09-28T14:33:31.855Z,8.57
2018-09-28T14:36:00.026Z,9.70
2018-09-28T14:38:28.214Z,12.83
2018-09-28T14:40:56.721Z,9.23
2018-09-28T14:43:24.986Z,9.90
2018-09-28T14:45:53.182Z,11.83
2018-09-28T14:48:22.066Z,9.47
2018-09-28T14:50:50.365Z,8.83
2018-09-28T14:53:18.558Z,8.53
2018-09-28T14:55:46.714Z,8.20
2018-09-28T14:58:15.067Z,10.90
2018-09-28T15:00:43.754Z,7.93
2018-09-28T15:03:11.798Z,10.67
2018-09-28T15:05:39.958Z,7.90
2018-09-28T15:08:08.200Z,9.17
2018-09-28T15:10:36.424Z,7.53
2018-09-28T15:13:04.602Z,7.10
2018-09-28T15:15:33.541Z,6.53
2018-09-28T15:18:01.754Z,7.63
2018-09-28T15:20:31.074Z,5.73
2018-09-28T15:22:59.240Z,5.60
2018-09-28T15:25:28.018Z,4.50
2018-09-28T15:27:56.273Z,6.03
2018-09-28T15:30:24.470Z,5.23
2018-09-28T15:32:54.188Z,3.40
2018-09-28T15:35:23.955Z,7.20
2018-09-28T15:37:52.016Z,4.13
2018-09-28T15:40:20.220Z,3.97
2018-09-28T15:42:48.633Z,4.20
2018-09-28T15:45:16.833Z,4.37
2018-09-28T15:47:45.110Z,5.63
2018-09-28T15:50:13.261Z,4.67
2018-09-28T15:52:41.486Z,5.43
2018-09-28T15:55:10.137Z,4.47
2018-09-28T15:57:39.066Z,4.17
2018-09-28T16:00:08.070Z,7.83
2018-09-28T16:02:36.265Z,10.30
2018-09-28T16:05:04.447Z,4.83
2018-09-28T16:07:32.655Z,4.70
2018-09-28T16:10:01.076Z,6.17
2018-09-28T16:12:29.962Z,5.40
2018-09-28T16:14:58.134Z,5.10
2018-09-28T16:17:26.319Z,4.13
2018-09-28T16:19:54.831Z,6.90
2018-09-28T16:22:23.082Z,6.30
2018-09-28T16:24:51.334Z,2.43
2018-09-28T16:27:19.458Z,5.27
2018-09-28T16:29:47.675Z,6.53
2018-09-28T16:32:18.000Z,7.07
2018-09-28T16:34:46.487Z,5.83
2018-09-28T16:37:14.967Z,4.20
2018-09-28T16:39:43.151Z,5.17
2018-09-28T16:42:11.369Z,7.67
2018-09-28T16:44:39.525Z,8.50
2018-09-28T16:47:07.695Z,4.80
2018-09-28T16:49:35.890Z,5.23
2018-09-28T16:52:04.073Z,8.43
2018-09-28T16:54:32.243Z,4.47
2018-09-28T16:57:00.690Z,3.17
2018-09-28T16:59:29.043Z,4.63
2018-09-28T17:01:57.254Z,7.33
2018-09-28T17:04:25.466Z,10.20
2018-09-28T17:06:53.666Z,3.77
2018-09-28T17:09:21.903Z,6.10
2018-09-28T17:11:50.014Z,5.67
2018-09-28T17:14:18.240Z,8.43
2018-09-28T17:16:46.417Z,6.87
2018-09-28T17:19:14.583Z,5.30
2018-09-28T17:21:42.781Z,6.37
2018-09-28T17:24:11.298Z,7.70
2018-09-28T17:26:39.494Z,4.73
2018-09-28T17:29:07.694Z,9.43
2018-09-28T17:31:42.638Z,7.40
2018-09-28T17:34:10.843Z,6.27
2018-09-28T17:36:39.026Z,5.57
2018-09-28T17:39:12.124Z,10.03
2018-09-28T17:41:40.419Z,3.37
2018-09-28T17:44:09.468Z,4.37
2018-09-28T17:46:37.652Z,9.03
2018-09-28T17:49:05.996Z,4.07
2018-09-28T17:51:34.176Z,7.77
2018-09-28T17:54:03.324Z,6.13
2018-09-28T17:56:31.544Z,9.73
2018-09-28T17:58:59.851Z,7.73
2018-09-28T18:01:28.062Z,12.63
2018-09-28T18:03:56.307Z,9.00
2018-09-28T18:06:24.576Z,5.83
2018-09-28T18:08:52.758Z,7.77
2018-09-28T18:11:20.987Z,6.17
2018-09-28T18:13:49.185Z,6.13
2018-09-28T18:16:17.383Z,8.90
2018-09-28T18:18:45.766Z,2.70
2018-09-28T18:21:13.914Z,8.47
2018-09-28T18:23:42.122Z,8.43
2018-09-28T18:26:10.337Z,6.90
2018-09-28T18:28:38.570Z,6.47
2018-09-28T18:31:07.218Z,7.83
2018-09-28T18:33:35.507Z,7.50
2018-09-28T18:36:04.162Z,9.40
2018-09-28T18:38:32.383Z,5.03
2018-09-28T18:41:00.752Z,10.73
2018-09-28T18:43:31.541Z,8.93
2018-09-28T18:45:59.728Z,7.93
2018-09-28T18:48:27.986Z,8.07
2018-09-28T18:50:56.127Z,12.63
2018-09-28T18:53:24.301Z,7.17
2018-09-28T18:55:53.766Z,7.00
2018-09-28T18:58:21.948Z,9.00
2018-09-28T19:00:50.161Z,9.90
2018-09-28T19:03:18.441Z,9.70
2018-09-28T19:05:46.658Z,8.23
2018-09-28T19:08:14.864Z,6.63
2018-09-28T19:10:43.043Z,10.93
2018-09-28T19:13:12.012Z,7.00
2018-09-28T19:15:40.546Z,9.00
2018-09-28T19:18:08.772Z,6.80
2018-09-28T19:20:37.206Z,8.43
2018-09-28T19:23:05.748Z,10.10
2018-09-28T19:25:33.985Z,7.67
2018-09-28T19:28:02.158Z,8.60
2018-09-28T19:30:30.372Z,8.70
2018-09-28T19:32:58.596Z,13.67
2018-09-28T19:35:26.798Z,6.10
2018-09-28T19:37:54.991Z,8.03
2018-09-28T19:40:23.190Z,6.47
2018-09-28T19:42:51.395Z,4.83
2018-09-28T19:45:19.566Z,9.23
2018-09-28T19:47:47.810Z,10.97
2018-09-28T19:50:16.012Z,9.03
2018-09-28T19:52:44.930Z,11.07
2018-09-28T19:55:13.137Z,11.17
2018-09-28T19:57:41.333Z,8.23
2018-09-28T20:00:09.579Z,7.80
2018-09-28T20:02:38.177Z,7.67
2018-09-28T20:05:07.040Z,11.00
2018-09-28T20:07:35.234Z,6.97
2018-09-28T20:10:03.406Z,12.37
2018-09-28T20:12:31.607Z,8.13
2018-09-28T20:14:59.791Z,13.33
2018-09-28T20:17:27.994Z,16.37
2018-09-28T20:19:56.166Z,12.90
2018-09-28T20:22:24.389Z,8.17
2018-09-28T20:24:52.534Z,9.37
2018-09-28T20:27:21.162Z,13.47
2018-09-28T20:29:49.754Z,11.53
2018-09-28T20:32:17.938Z,13.07
2018-09-28T20:34:46.202Z,11.53
2018-09-28T20:37:14.792Z,11.17
2018-09-28T20:39:42.970Z,9.30
2018-09-28T20:42:11.211Z,11.20
2018-09-28T20:44:39.374Z,8.93
2018-09-28T20:47:07.542Z,7.20
2018-09-28T20:49:36.674Z,7.93
2018-09-28T20:52:04.888Z,10.60
2018-09-28T20:54:33.067Z,10.70
2018-09-28T20:57:01.709Z,9.80
2018-09-28T20:59:29.917Z,11.73
2018-09-28T21:01:58.106Z,11.53
2018-09-28T21:04:27.570Z,11.10
2018-09-28T21:06:56.811Z,11.33
2018-09-28T21:09:25.002Z,10.20
2018-09-28T21:11:53.670Z,6.73
2018-09-28T21:14:22.244Z,8.60
2018-09-28T21:16:50.408Z,10.60
2018-09-28T21:19:18.774Z,18.40
2018-09-28T21:21:46.937Z,10.50
2018-09-28T21:24:15.106Z,9.50
2018-09-28T21:26:43.339Z,7.87
2018-09-28T21:29:11.506Z,10.93
2018-09-28T21:31:39.697Z,11.50
2018-09-28T21:34:07.870Z,9.23
2018-09-28T21:36:36.066Z,11.50
2018-09-28T21:39:05.862Z,9.90
2018-09-28T21:41:34.038Z,13.43
2018-09-28T21:44:02.224Z,16.50
2018-09-28T21:46:30.374Z,9.27
2018-09-28T21:48:58.579Z,11.97
2018-09-28T21:51:26.805Z,10.37
2018-09-28T21:53:56.658Z,11.43
2018-09-28T21:56:28.130Z,9.10
2018-09-28T21:58:56.351Z,7.40
2018-09-28T22:01:24.562Z,10.97
2018-09-28T22:03:52.791Z,9.17
2018-09-28T22:06:20.986Z,10.93
2018-09-28T22:08:49.171Z,9.13
2018-09-28T22:11:17.331Z,14.37
2018-09-28T22:13:45.861Z,6.60
2018-09-28T22:16:14.399Z,7.40
2018-09-28T22:18:42.550Z,8.70
2018-09-28T22:21:10.822Z,6.10
2018-09-28T22:23:39.028Z,8.17
2018-09-28T22:26:07.310Z,10.63
2018-09-28T22:28:35.482Z,7.40
2018-09-28T22:31:03.658Z,12.43
2018-09-28T22:33:31.866Z,10.77
2018-09-28T22:36:00.041Z,9.10
2018-09-28T22:38:28.254Z,8.73
2018-09-28T22:40:56.436Z,8.43
2018-09-28T22:43:24.642Z,4.33
2018-09-28T22:45:53.031Z,9.97
2018-09-28T22:48:21.234Z,9.27
2018-09-28T22:50:49.466Z,7.43
2018-09-28T22:53:19.210Z,8.47
2018-09-28T22:55:47.406Z,12.27
2018-09-28T22:58:15.699Z,8.37
2018-09-28T23:00:43.998Z,6.93
2018-09-28T23:03:14.103Z,9.67
2018-09-28T23:05:42.268Z,6.37
2018-09-28T23:08:10.473Z,7.27
2018-09-28T23:10:38.766Z,11.23
2018-09-28T23:13:06.904Z,7.83
2018-09-28T23:15:35.087Z,5.30
2018-09-28T23:18:03.268Z,8.07
2018-09-28T23:20:38.227Z,5.10
2018-09-28T23:23:08.067Z,5.20
2018-09-28T23:25:37.982Z,8.37
2018-09-28T23:28:06.162Z,5.77
2018-09-28T23:30:34.380Z,10.07
2018-09-28T23:33:03.142Z,2.67
2018-09-28T23:35:31.473Z,8.00
2018-09-28T23:38:00.066Z,5.87
2018-09-28T23:40:28.302Z,7.77
2018-09-28T23:42:56.752Z,5.33
2018-09-28T23:45:24.929Z,8.03
2018-09-28T23:47:53.114Z,5.37
2018-09-28T23:50:22.242Z,6.03
2018-09-28T23:52:50.421Z,3.53
2018-09-28T23:55:18.597Z,9.13
2018-09-28T23:57:46.774Z,8.87
